This is the latest recevied weather packets stored in our database for station/object W7DG. If no packets are shown the sender has not sent any weather packets the latest 1 day(s).
| Time | Temp. | Humidity | Pressure | Rain* | Wind** | Luminosity | Snow |
|---|---|---|---|---|---|---|---|
| 1836274604 | 18.33° C | 70% | 1014.4 hPa | 0 mm | 0 m/s | - | - |
| 1836274216 | 18.33° C | 72% | 1014.3 hPa | 0 mm | 0 m/s | - | - |
| 1836274065 | 18.89° C | 69% | 1014.3 hPa | 0 mm | 0 m/s | - | - |
| 1778054050 | 10.56° C | 88% | 1018.9 hPa | 0 mm | 0 m/s | - | - |
| 1778053689 | 10.56° C | 88% | 1018.9 hPa | 0 mm | 0 m/s | - | - |
| 1778053150 | 10.56° C | 88% | 1018.7 hPa | 0 mm | 0 m/s | - | - |
| 1778052789 | 10.56° C | 88% | 1018.8 hPa | 0 mm | 0 m/s | - | - |
| 1778052250 | 10.56° C | 88% | 1018.7 hPa | 0 mm | 0 m/s | - | - |
| 1778051889 | 10.56° C | 88% | 1018.7 hPa | 0 mm | 0 m/s | - | - |
| 1778051350 | 10.56° C | 88% | 1018.7 hPa | 0 mm | 0 m/s | - | - |
| 1778050989 | 10.56° C | 88% | 1018.7 hPa | 0 mm | 0 m/s | - | - |
| 1778050450 | 10.56° C | 88% | 1018.6 hPa | 0 mm | 0 m/s | - | - |
| 1778050089 | 10.56° C | 88% | 1018.6 hPa | 0 mm | 0 m/s | - | - |
| 1778049550 | 10.56° C | 87% | 1018.6 hPa | 0 mm | 0 m/s | - | - |
| 1778049189 | 11.11° C | 87% | 1018.5 hPa | 0 mm | 0 m/s | - | - |
| 1778048650 | 11.11° C | 87% | 1018.5 hPa | 0 mm | 0 m/s | - | - |
| 1778048289 | 11.11° C | 88% | 1018.2 hPa | 0 mm | 0 m/s | - | - |
| 1778047750 | 11.11° C | 88% | 1018.2 hPa | 0 mm | 0 m/s | - | - |
| 1778047389 | 11.11° C | 88% | 1018.2 hPa | 0 mm | 0 m/s | - | - |
| 1778046850 | 11.11° C | 87% | 1018.2 hPa | 0 mm | 0 m/s | - | - |
| 1778046489 | 11.11° C | 87% | 1018.2 hPa | 0 mm | 0 m/s | - | - |
| 1778045950 | 11.11° C | 87% | 1018.3 hPa | 0 mm | 0 m/s | - | - |
| 1778045589 | 11.11° C | 87% | 1018.2 hPa | 0 mm | 0 m/s | - | - |
| 1778045051 | 11.11° C | 87% | 1018.1 hPa | 0 mm | 0 m/s | - | - |
| 1778044690 | 11.11° C | 87% | 1018.1 hPa | 0 mm | 0 m/s | - | - |
* Rain latest hour (hover to see other rain measurements)
** Current wind speed in m/s (hover to see current wind gust speed)